Current Conditions
Clear
Conditions



Pressure
1017.62 (mb) - 30.05 (inHG)
Visibility

9.9 (mimiles) - 16.0 (km)
   Temperature
64  °F
18°C
37  °F
Dewpoint
37  %
 Humidity
   Wind Speed
5  mph
4  kts
8  km/h
2.2  m/s
   Wind Direction
 300°
West North
West
   Airport Data
KAMG
Location Bacon County Airport 16 mi (25.74 km)
Metar :KAMG 041653Z AUTO 30004KT 10SM CLR 18/03 A3005 RMK AO2 SLP174 T01780033 $
Thu 4th March 11:53 am
   Raw Metar Info
Raw METAR is the most common format in the world for the transmission of observational weather data. It is highly standardized through the International Civil Aviation Organization (ICAO), which allows it to be understood throughout most of the world.
   API Info
Data Provided by
https://www.checkwx.com/weather/KAMG
   © Info
CSS/SVG/PHP scripts were developed by weather34.com for use in the weather34 template © 2015-2021

Guide Info provided by Metar-Wikipedia